Jeffersonville, Ohio
Current Conditions -  °F | °C
As of 5:56 AM on Thursday 23 Oct 2014 (Local Time) from KSGH Reporting Station
Haze Haze  
Wind Chill: 33°   Ceiling: Unl
Heat Index: 38°   Visibility: 5mi
Dew Point: 37°   Wind: 6mph
Humidity: 96%   Direction: 240°WSW
Pressure: 30.25"   Gusts: NA
Location:  39.65°N, 83.56°W
Report Text: KSGH 230956Z AUTO 24005KT 5SM BR CLR 03/03 A3025 RMK AO2 T00330027 SLP248
Loading
Personal Weather Stations






























Interactive Weather Map
Tropical Storm Tracking
New forecast layout! Learn more

10-Day Weather Forecast

Advertisements
Track Severe Weather on mobile